FW0052 Weather Reports


Display with metric or nautical units.
time (UTC)temp
F
wind
direction
speed
MPH
gust
MPH
rain 1hr
in
rain 24hr
in
rain mn
in
humidity
%
barometer
mb
20181212053022 22 0.0 0.0 0.00 0.00 0.00 77 1019.2
20181212050021 22 0.0 0.0 0.00 0.00 0.00 75 1018.9
20181212043021 23 0.0 0.0 0.00 0.00 0.00 74 1018.7
20181212040021 24 0.0 0.0 0.00 0.00 0.00 73 1018.2
20181212033021 25 0.0 0.0 0.00 0.00 0.00 71 1017.7
20181212030021 27 0.0 0.0 0.00 0.00 0.00 70 1017.8
20181212023021 28 0.0 0.0 0.00 0.00 0.00 64 1017.8
20181212020021 31 0.0 0.0 0.00 0.00 0.00 62 1017.8
20181212013021 33 0.0 0.0 0.00 0.00 0.00 60 1017.8
20181212010021 36 0.0 8.0 0.00 0.00 0.00 54 1018.1
20181212003021 41 182 2.0 8.0 0.00 0.00 0.00 47 1018.1
20181212000021 45 154 1.0 6.0 0.00 0.00 0.00 41 1018.3
20181211233021 48 220 0.0 9.0 0.00 0.00 0.00 37 1018.6
20181211223025 48 141 2.0 8.0 0.00 0.00 0.00 38 1018.6
20181211220025 48 22 0.0 4.0 0.00 0.00 0.00 38 1018.7
20181211213025 47 0.0 8.0 0.00 0.00 0.00 39 1018.9
20181211210024 47 14 2.0 9.0 0.00 0.00 0.00 40 1019.2
20181211203024 46 9 4.0 9.0 0.00 0.00 0.00 41 1019.2
20181211200025 46 324 0.0 4.0 0.00 0.00 0.00 40 1019.9
20181211193025 46 0.0 0.0 0.00 0.00 0.00 42 1020.5
20181211190024 45 0.0 0.0 0.00 0.00 0.00 45 1021.1
20181211183024 42 0.0 0.0 0.00 0.00 0.00 48 1021.6
20181211180024 40 0.0 0.0 0.00 0.00 0.00 51 1021.9
20181211173024 39 0.0 0.0 0.00 0.00 0.00 52 1022.7
20181211170024 38 0.0 0.0 0.00 0.00 0.00 56 1022.9
20181211163024 35 0.0 0.0 0.00 0.00 0.00 63 1022.9
20181211160024 31 0.0 0.0 0.00 0.00 0.00 71 1023.0
20181211153023 26 0.0 0.0 0.00 0.00 0.00 80 1022.7
20181211150023 22 0.0 0.0 0.00 0.00 0.00 83 1022.0
20181211143023 21 0.0 0.0 0.00 0.00 0.00 82 1021.9
20181211140024 22 0.0 0.0 0.00 0.00 0.00 80 1022.1
20181211133023 24 0.0 0.0 0.00 0.00 0.00 77 1022.5
20181211130024 26 0.0 0.0 0.00 0.00 0.00 76 1022.8
20181211123024 27 0.0 0.0 0.00 0.00 0.00 76 1023.1
20181211120024 27 0.0 0.0 0.00 0.00 0.00 76 1023.3
20181211113023 27 0.0 0.0 0.00 0.00 0.00 75 1023.5
20181211110024 28 0.0 0.0 0.00 0.00 0.00 74 1023.8
20181211103023 27 0.0 0.0 0.00 0.00 0.00 73 1024.2
20181211100023 28 0.0 0.0 0.00 0.00 0.00 74 1024.3
20181211093023 28 0.0 0.0 0.00 0.00 0.00 74 1024.3
20181211090024 27 0.0 0.0 0.00 0.00 0.00 74 1024.6
20181211083023 27 0.0 0.0 0.00 0.00 0.00 73 1024.7
20181211080023 28 0.0 0.0 0.00 0.00 0.00 73 1024.9
20181211073023 28 0.0 0.0 0.00 0.00 0.00 73 1025.3
20181211070022 28 0.0 0.0 0.00 0.00 0.00 73 1025.1
20181211063022 27 0.0 0.0 0.00 0.00 0.00 73 1025.0
20181211060021 27 0.0 0.0 0.00 0.00 0.00 74 1025.1